Redding, California
Current Conditions -  °F | °C
As of 10:53 PM on Thursday 30 Oct 2014 (Local Time) from KRDD Reporting Station
Clear Clear  
Wind Chill: 59°   Ceiling: Unl
Heat Index: 59°   Visibility: 10mi
Dew Point: 55°   Wind: 0mph
Humidity: 87%   Direction: NA
Pressure: 29.8"   Gusts: NA
Location:  40.59°N, 122.39°W
Report Text: KRDD 310553Z AUTO 00000KT 10SM CLR 15/13 A2980 RMK AO2 SLP089 T01500128 10222 20144 55004
Loading
Personal Weather Stations






























Interactive Weather Map
Tropical Storm Tracking
New forecast layout! Learn more

10-Day Weather Forecast

Advertisements
Track Severe Weather on mobile